Terminal Aerodrome Forecast
Issued by NWS Shreveport, LA

Home | Current Version | Previous Version | Text Only | Print | Product List | Glossary On
Versions: 1 2 3 4 5 6 7 8 9 10 11 12 13 14
000
FTUS44 KSHV 292300
TAFMLU
TAF
KMLU 292320Z 3000/3024 17006KT P6SM VCTS SCT050CB
     FM300300 16003KT P6SM SCT045 BKN120 BKN250
     FM300900 VRB03KT P6SM BKN020 BKN035
      TEMPO 3009/3012 3SM -RA OVC007
     FM301200 VRB03KT 4SM -RA BR BKN007 OVC012
     FM301800 20010KT 6SM -RA BR VCTS BKN030CB=

USA.gov is the U.S. government's official web portal to all federal, state and local government web resources and services.